createdAt,value
2019-03-22T00:00:22.000Z,101885
2019-03-22T00:01:38.000Z,101880
2019-03-22T00:03:38.000Z,101879
2019-03-22T00:05:38.000Z,101875
2019-03-22T00:06:38.000Z,101875
2019-03-22T00:07:38.000Z,101884
2019-03-22T00:08:38.000Z,101885
2019-03-22T00:10:38.000Z,101880
2019-03-22T00:12:38.000Z,101872
2019-03-22T00:13:38.000Z,101873
2019-03-22T00:15:38.000Z,101874
2019-03-22T00:17:38.000Z,101875
2019-03-22T00:19:38.000Z,101876
2019-03-22T00:21:38.000Z,101876
2019-03-22T00:22:38.000Z,101873
2019-03-22T00:24:38.000Z,101873
2019-03-22T00:26:22.000Z,101867
2019-03-22T00:28:38.000Z,101874
2019-03-22T00:30:38.000Z,101866
2019-03-22T00:31:38.000Z,101863
2019-03-22T00:32:38.000Z,101868
2019-03-22T00:33:38.000Z,101871
2019-03-22T00:35:23.000Z,101863
2019-03-22T00:36:38.000Z,101867
2019-03-22T00:37:38.000Z,101868
2019-03-22T00:39:38.000Z,101866
2019-03-22T00:40:38.000Z,101863
2019-03-22T00:42:38.000Z,101862
2019-03-22T00:44:38.000Z,101861
2019-03-22T00:46:38.000Z,101861
2019-03-22T00:47:38.000Z,101861
2019-03-22T00:49:38.000Z,101852
2019-03-22T00:51:23.000Z,101849
2019-03-22T00:52:38.000Z,101852
2019-03-22T00:54:38.000Z,101852
2019-03-22T00:56:38.000Z,101856
2019-03-22T00:58:23.000Z,101861
2019-03-22T00:59:38.000Z,101858
2019-03-22T01:01:38.000Z,101859
2019-03-22T01:03:38.000Z,101853
2019-03-22T01:05:38.000Z,101846
2019-03-22T01:07:38.000Z,101858
2019-03-22T01:08:38.000Z,101858
2019-03-22T01:09:38.000Z,101860
2019-03-22T01:11:38.000Z,101858
2019-03-22T01:12:38.000Z,101858
2019-03-22T01:14:38.000Z,101860
2019-03-22T01:15:38.000Z,101863
2019-03-22T01:17:23.000Z,101861
2019-03-22T01:18:38.000Z,101867
2019-03-22T01:19:38.000Z,101866
2019-03-22T01:21:38.000Z,101863
2019-03-22T01:23:38.000Z,101865
2019-03-22T01:25:38.000Z,101862
2019-03-22T01:27:38.000Z,101860
2019-03-22T01:29:23.000Z,101859
2019-03-22T01:30:38.000Z,101858
2019-03-22T01:31:38.000Z,101852
2019-03-22T01:33:23.000Z,101854
2019-03-22T01:34:23.000Z,101851
2019-03-22T01:35:38.000Z,101855
2019-03-22T01:37:23.000Z,101855
2019-03-22T01:38:38.000Z,101852
2019-03-22T01:40:38.000Z,101849
2019-03-22T01:41:38.000Z,101853
2019-03-22T01:43:38.000Z,101853
2019-03-22T01:45:23.000Z,101852
2019-03-22T01:47:38.000Z,101846
2019-03-22T01:49:38.000Z,101842
2019-03-22T01:51:38.000Z,101844
2019-03-22T01:53:38.000Z,101842
2019-03-22T01:55:08.000Z,101842
2019-03-22T01:56:38.000Z,101849
2019-03-22T01:58:38.000Z,101832
2019-03-22T02:00:38.000Z,101842
2019-03-22T02:02:38.000Z,101841
2019-03-22T02:03:38.000Z,101840
2019-03-22T02:05:23.000Z,101837
2019-03-22T02:06:38.000Z,101845
2019-03-22T02:08:38.000Z,101845
2019-03-22T02:10:38.000Z,101845
2019-03-22T02:12:38.000Z,101838
2019-03-22T02:13:38.000Z,101837
2019-03-22T02:15:38.000Z,101831
2019-03-22T02:17:38.000Z,101830
2019-03-22T02:19:38.000Z,101833
2019-03-22T02:21:38.000Z,101829
2019-03-22T02:22:38.000Z,101829
2019-03-22T02:24:38.000Z,101834
2019-03-22T02:26:23.000Z,101833
2019-03-22T02:27:38.000Z,101828
2019-03-22T02:29:23.000Z,101830
2019-03-22T02:30:38.000Z,101831
2019-03-22T02:31:38.000Z,101833
2019-03-22T02:33:08.000Z,101829
2019-03-22T02:34:38.000Z,101837
2019-03-22T02:36:23.000Z,101839
2019-03-22T02:37:38.000Z,101835
2019-03-22T02:39:23.000Z,101840
2019-03-22T02:41:23.000Z,101836
2019-03-22T02:42:37.000Z,101828
2019-03-22T02:44:37.000Z,101831
2019-03-22T02:46:37.000Z,101828
2019-03-22T02:48:37.000Z,101824
2019-03-22T02:49:37.000Z,101829
2019-03-22T02:51:37.000Z,101821
2019-03-22T02:52:37.000Z,101823
2019-03-22T02:54:37.000Z,101824
2019-03-22T02:55:37.000Z,101826
2019-03-22T02:57:37.000Z,101826
2019-03-22T02:59:37.000Z,101827
2019-03-22T03:00:37.000Z,101824
2019-03-22T03:02:37.000Z,101819
2019-03-22T03:03:37.000Z,101810
2019-03-22T03:05:22.000Z,101811
2019-03-22T03:07:37.000Z,101802
2019-03-22T03:08:37.000Z,101809
2019-03-22T03:10:37.000Z,101807
2019-03-22T03:12:22.000Z,101802
2019-03-22T03:13:37.000Z,101801
2019-03-22T03:15:37.000Z,101801
2019-03-22T03:17:37.000Z,101807
2019-03-22T03:19:37.000Z,101805
2019-03-22T03:21:37.000Z,101806
2019-03-22T03:23:37.000Z,101801
2019-03-22T03:24:37.000Z,101805
2019-03-22T03:26:22.000Z,101802
2019-03-22T03:27:37.000Z,101793
2019-03-22T03:29:37.000Z,101798
2019-03-22T03:31:37.000Z,101799
2019-03-22T03:32:37.000Z,101799
2019-03-22T03:33:38.000Z,101799
2019-03-22T03:35:37.000Z,101797
2019-03-22T03:37:37.000Z,101802
2019-03-22T03:38:37.000Z,101802
2019-03-22T03:40:37.000Z,101802
2019-03-22T03:42:37.000Z,101804
2019-03-22T03:43:37.000Z,101802
2019-03-22T03:45:37.000Z,101804
2019-03-22T03:46:38.000Z,101804
2019-03-22T03:48:38.000Z,101795
2019-03-22T03:49:38.000Z,101804
2019-03-22T03:51:38.000Z,101804
2019-03-22T03:52:38.000Z,101807
2019-03-22T03:54:38.000Z,101797
2019-03-22T03:56:38.000Z,101796
2019-03-22T03:57:38.000Z,101797
2019-03-22T03:59:38.000Z,101797
2019-03-22T04:01:38.000Z,101796
2019-03-22T04:02:38.000Z,101797
2019-03-22T04:03:38.000Z,101795
2019-03-22T04:05:38.000Z,101795
2019-03-22T04:07:38.000Z,101799
2019-03-22T04:09:38.000Z,101791
2019-03-22T04:10:38.000Z,101788
2019-03-22T04:12:08.000Z,101785
2019-03-22T04:13:38.000Z,101788
2019-03-22T04:15:38.000Z,101788
2019-03-22T04:16:38.000Z,101790
2019-03-22T04:18:38.000Z,101786
2019-03-22T04:19:38.000Z,101781
2019-03-22T04:20:38.000Z,101781
2019-03-22T04:22:38.000Z,101785
2019-03-22T04:23:38.000Z,101786
2019-03-22T04:24:38.000Z,101786
2019-03-22T04:26:38.000Z,101787
2019-03-22T04:28:38.000Z,101783
2019-03-22T04:30:23.000Z,101782
2019-03-22T04:31:23.000Z,101785
2019-03-22T04:32:38.000Z,101787
2019-03-22T04:34:38.000Z,101791
2019-03-22T04:36:38.000Z,101785
2019-03-22T04:38:23.000Z,101786
2019-03-22T04:39:38.000Z,101791
2019-03-22T04:40:38.000Z,101789
2019-03-22T04:42:23.000Z,101784
2019-03-22T04:44:38.000Z,101789
2019-03-22T04:45:38.000Z,101786
2019-03-22T04:46:38.000Z,101785
2019-03-22T04:48:38.000Z,101788
2019-03-22T04:50:37.000Z,101787
2019-03-22T04:51:37.000Z,101788
2019-03-22T04:53:37.000Z,101786
2019-03-22T04:54:37.000Z,101793
2019-03-22T04:56:37.000Z,101789
2019-03-22T04:58:37.000Z,101789
2019-03-22T05:00:37.000Z,101786
2019-03-22T05:01:37.000Z,101787
2019-03-22T05:03:37.000Z,101785
2019-03-22T05:05:37.000Z,101788
2019-03-22T05:07:37.000Z,101782
2019-03-22T05:08:37.000Z,101779
2019-03-22T05:10:37.000Z,101774
2019-03-22T05:12:37.000Z,101772
2019-03-22T05:14:37.000Z,101777
2019-03-22T05:15:37.000Z,101778
2019-03-22T05:17:37.000Z,101784
2019-03-22T05:19:37.000Z,101791
2019-03-22T05:21:37.000Z,101790
2019-03-22T05:23:37.000Z,101788
2019-03-22T05:25:22.000Z,101789
2019-03-22T05:26:37.000Z,101788
2019-03-22T05:28:22.000Z,101782
2019-03-22T05:29:22.000Z,101782
2019-03-22T05:31:37.000Z,101786
2019-03-22T05:32:37.000Z,101782
2019-03-22T05:34:37.000Z,101784
2019-03-22T05:36:37.000Z,101781
2019-03-22T05:38:22.000Z,101781
2019-03-22T05:39:37.000Z,101781
2019-03-22T05:40:37.000Z,101779
2019-03-22T05:42:37.000Z,101783
2019-03-22T05:43:37.000Z,101780
2019-03-22T05:45:37.000Z,101781
2019-03-22T05:47:22.000Z,101791
2019-03-22T05:48:37.000Z,101789
2019-03-22T05:49:37.000Z,101788
2019-03-22T05:51:37.000Z,101791
2019-03-22T05:53:07.000Z,101795
2019-03-22T05:54:38.000Z,101791
2019-03-22T05:56:38.000Z,101795
2019-03-22T05:58:38.000Z,101799
2019-03-22T05:59:38.000Z,101804
2019-03-22T06:01:38.000Z,101800
2019-03-22T06:03:38.000Z,101800
2019-03-22T06:05:38.000Z,101802
2019-03-22T06:07:38.000Z,101802
2019-03-22T06:09:23.000Z,101802
2019-03-22T06:10:38.000Z,101809
2019-03-22T06:11:38.000Z,101802
2019-03-22T06:12:38.000Z,101803
2019-03-22T06:14:23.000Z,101815
2019-03-22T06:15:38.000Z,101815
2019-03-22T06:17:38.000Z,101812
2019-03-22T06:19:38.000Z,101817
2019-03-22T06:21:23.000Z,101817
2019-03-22T06:22:38.000Z,101815
2019-03-22T06:24:38.000Z,101818
2019-03-22T06:25:38.000Z,101821
2019-03-22T06:27:38.000Z,101822
2019-03-22T06:28:38.000Z,101820
2019-03-22T06:29:38.000Z,101820
2019-03-22T06:31:23.000Z,101820
2019-03-22T06:32:38.000Z,101826
2019-03-22T06:34:38.000Z,101824
2019-03-22T06:36:23.000Z,101821
2019-03-22T06:37:38.000Z,101822
2019-03-22T06:38:38.000Z,101827
2019-03-22T06:39:38.000Z,101822
2019-03-22T06:41:38.000Z,101826
2019-03-22T06:42:38.000Z,101826
2019-03-22T06:43:38.000Z,101825
2019-03-22T06:45:38.000Z,101826
2019-03-22T06:47:08.000Z,101824
2019-03-22T06:48:38.000Z,101825
2019-03-22T06:49:38.000Z,101828
2019-03-22T06:50:38.000Z,101829
2019-03-22T06:51:38.000Z,101830
2019-03-22T06:53:38.000Z,101827
2019-03-22T06:55:23.000Z,101837
2019-03-22T06:56:38.000Z,101832
2019-03-22T06:58:23.000Z,101837
2019-03-22T07:00:38.000Z,101841
2019-03-22T07:01:38.000Z,101848
2019-03-22T07:03:38.000Z,101854
2019-03-22T07:05:38.000Z,101856
2019-03-22T07:07:07.000Z,101848
2019-03-22T07:08:38.000Z,101850
2019-03-22T07:10:38.000Z,101847
2019-03-22T07:14:38.000Z,101855
2019-03-22T07:16:24.000Z,101848
2019-03-22T07:17:24.000Z,101851
2019-03-22T07:19:24.000Z,101855
2019-03-22T07:20:24.000Z,101855
2019-03-22T07:21:24.000Z,101859
2019-03-22T07:23:24.000Z,101859
2019-03-22T07:24:24.000Z,101862
2019-03-22T07:26:24.000Z,101863
2019-03-22T07:27:24.000Z,101869
2019-03-22T07:29:24.000Z,101866
2019-03-22T07:31:09.000Z,101867
2019-03-22T07:32:24.000Z,101865
2019-03-22T07:36:10.000Z,101869
2019-03-22T07:37:10.000Z,101867
2019-03-22T07:39:10.000Z,101865
2019-03-22T07:41:10.000Z,101869
2019-03-22T07:42:10.000Z,101865
2019-03-22T07:43:10.000Z,101860
2019-03-22T07:45:10.000Z,101858
2019-03-22T07:47:10.000Z,101860
2019-03-22T07:49:10.000Z,101858
2019-03-22T07:51:10.000Z,101860
2019-03-22T07:52:10.000Z,101853
2019-03-22T07:54:10.000Z,101856
2019-03-22T07:55:10.000Z,101858
2019-03-22T07:57:10.000Z,101861
2019-03-22T07:58:10.000Z,101854
2019-03-22T07:59:10.000Z,101852
2019-03-22T08:01:10.000Z,101856
2019-03-22T08:02:10.000Z,101856
2019-03-22T08:04:10.000Z,101856
2019-03-22T08:05:40.000Z,101849
2019-03-22T08:07:10.000Z,101862
2019-03-22T08:08:55.000Z,101848
2019-03-22T08:09:55.000Z,101849
2019-03-22T08:11:55.000Z,101851
2019-03-22T08:25:19.000Z,101829
2019-03-22T08:27:19.000Z,101832
2019-03-22T08:29:19.000Z,101828
2019-03-22T08:31:04.000Z,101824
2019-03-22T08:32:04.000Z,101821
2019-03-22T08:34:19.000Z,101829
2019-03-22T08:35:19.000Z,101819
2019-03-22T08:37:19.000Z,101827
2019-03-22T08:39:19.000Z,101822
2019-03-22T08:40:19.000Z,101825
2019-03-22T08:42:04.000Z,101819
2019-03-22T08:43:19.000Z,101820
2019-03-22T08:45:04.000Z,101823
2019-03-22T08:46:19.000Z,101819
2019-03-22T08:48:19.000Z,101818
2019-03-22T08:49:49.000Z,101813
2019-03-22T08:51:19.000Z,101814
2019-03-22T08:53:04.000Z,101816
2019-03-22T08:55:19.000Z,101811
2019-03-22T08:57:04.000Z,101804
2019-03-22T08:58:04.000Z,101811
2019-03-22T09:00:04.000Z,101801
2019-03-22T09:02:04.000Z,101803
2019-03-22T09:04:19.000Z,101798
2019-03-22T09:06:04.000Z,101799
2019-03-22T09:08:19.000Z,101796
2019-03-22T09:09:49.000Z,101795
2019-03-22T09:11:19.000Z,101794
2019-03-22T09:13:19.000Z,101794
2019-03-22T09:15:04.000Z,101795
2019-03-22T09:16:04.000Z,101795
2019-03-22T09:18:04.000Z,101792
2019-03-22T09:19:19.000Z,101788
2019-03-22T09:21:19.000Z,101790
2019-03-22T09:23:19.000Z,101789
2019-03-22T09:24:19.000Z,101790
2019-03-22T09:26:19.000Z,101789
2019-03-22T09:28:04.000Z,101785
2019-03-22T09:29:04.000Z,101786
2019-03-22T09:31:04.000Z,101783
2019-03-22T09:33:19.000Z,101779
2019-03-22T09:35:04.000Z,101776
2019-03-22T09:36:19.000Z,101767
2019-03-22T09:37:19.000Z,101770
2019-03-22T09:39:19.000Z,101773
2019-03-22T09:41:19.000Z,101773
2019-03-22T09:43:19.000Z,101771
2019-03-22T09:44:19.000Z,101772
2019-03-22T09:46:19.000Z,101769
2019-03-22T09:48:04.000Z,101761
2019-03-22T09:49:49.000Z,101762
2019-03-22T09:51:19.000Z,101760
2019-03-22T09:53:19.000Z,101755
2019-03-22T09:55:04.000Z,101749
2019-03-22T09:57:19.000Z,101755
2019-03-22T09:59:19.000Z,101747
2019-03-22T10:00:19.000Z,101749
2019-03-22T10:02:04.000Z,101746
2019-03-22T10:03:19.000Z,101746
2019-03-22T10:05:04.000Z,101748
2019-03-22T10:06:49.000Z,101744
2019-03-22T10:07:49.000Z,101739
2019-03-22T10:10:19.000Z,101741
2019-03-22T10:12:19.000Z,101736
2019-03-22T10:14:04.000Z,101736
2019-03-22T10:15:19.000Z,101734
2019-03-22T10:17:04.000Z,101731
2019-03-22T10:18:49.000Z,101732
2019-03-22T10:20:04.000Z,101731
2019-03-22T10:21:04.000Z,101738
2019-03-22T10:22:19.000Z,101734
2019-03-22T10:23:19.000Z,101735
2019-03-22T10:25:04.000Z,101726
2019-03-22T10:27:04.000Z,101724
2019-03-22T10:28:19.000Z,101724
2019-03-22T10:30:04.000Z,101723
2019-03-22T10:31:04.000Z,101717
2019-03-22T10:32:19.000Z,101724
2019-03-22T10:34:19.000Z,101725
2019-03-22T10:36:19.000Z,101725
2019-03-22T10:38:03.000Z,101722
2019-03-22T10:39:04.000Z,101724
2019-03-22T10:41:03.000Z,101713
2019-03-22T10:42:19.000Z,101714
2019-03-22T10:43:48.000Z,101708
2019-03-22T10:45:04.000Z,101709
2019-03-22T10:46:04.000Z,101705
2019-03-22T10:48:04.000Z,101708
2019-03-22T10:50:19.000Z,101709
2019-03-22T10:51:49.000Z,101706
2019-03-22T11:03:37.000Z,101692
2019-03-22T11:05:37.000Z,101689
2019-03-22T11:07:22.000Z,101686
2019-03-22T11:08:37.000Z,101694
2019-03-22T11:10:22.000Z,101688
2019-03-22T11:11:37.000Z,101683
2019-03-22T11:13:37.000Z,101687
2019-03-22T11:14:37.000Z,101679
2019-03-22T11:16:37.000Z,101678
2019-03-22T11:18:37.000Z,101673
2019-03-22T11:20:37.000Z,101669
2019-03-22T11:21:37.000Z,101668
2019-03-22T11:23:37.000Z,101661
2019-03-22T11:25:37.000Z,101654
2019-03-22T11:27:37.000Z,101652
2019-03-22T11:29:22.000Z,101649
2019-03-22T11:30:37.000Z,101644
2019-03-22T11:32:07.000Z,101637
2019-03-22T11:33:37.000Z,101638
2019-03-22T11:34:37.000Z,101634
2019-03-22T11:36:37.000Z,101632
2019-03-22T11:38:22.000Z,101628
2019-03-22T11:40:37.000Z,101621
2019-03-22T11:42:37.000Z,101620
2019-03-22T11:44:37.000Z,101623
2019-03-22T11:46:22.000Z,101621
2019-03-22T11:47:37.000Z,101619
2019-03-22T11:49:22.000Z,101617
2019-03-22T11:50:37.000Z,101616
2019-03-22T11:52:22.000Z,101613
2019-03-22T11:53:22.000Z,101609
2019-03-22T11:54:37.000Z,101602
2019-03-22T11:56:07.000Z,101608
2019-03-22T11:58:37.000Z,101597
2019-03-22T11:59:37.000Z,101598
2019-03-22T12:01:37.000Z,101589
2019-03-22T12:03:22.000Z,101592
2019-03-22T12:04:37.000Z,101594
2019-03-22T12:05:37.000Z,101591
2019-03-22T12:07:37.000Z,101581
2019-03-22T12:09:22.000Z,101589
2019-03-22T12:10:37.000Z,101576
2019-03-22T12:12:37.000Z,101577
2019-03-22T12:13:37.000Z,101573
2019-03-22T12:15:07.000Z,101573
2019-03-22T12:16:37.000Z,101566
2019-03-22T12:17:37.000Z,101568
2019-03-22T12:19:37.000Z,101568
2019-03-22T12:21:37.000Z,101560
2019-03-22T12:23:37.000Z,101556
2019-03-22T12:24:37.000Z,101550
2019-03-22T12:25:37.000Z,101548
2019-03-22T12:27:37.000Z,101547
2019-03-22T12:29:37.000Z,101548
2019-03-22T12:31:37.000Z,101543
2019-03-22T12:33:22.000Z,101544
2019-03-22T12:34:37.000Z,101541
2019-03-22T12:36:37.000Z,101541
2019-03-22T12:38:37.000Z,101536
2019-03-22T12:40:37.000Z,101528
2019-03-22T12:42:37.000Z,101529
2019-03-22T12:44:22.000Z,101528
2019-03-22T12:45:37.000Z,101523
2019-03-22T12:47:37.000Z,101518
2019-03-22T12:49:37.000Z,101519
2019-03-22T12:50:37.000Z,101520
2019-03-22T12:52:22.000Z,101514
2019-03-22T12:53:37.000Z,101514
2019-03-22T12:55:37.000Z,101510
2019-03-22T12:57:22.000Z,101503
2019-03-22T12:58:37.000Z,101500
2019-03-22T13:00:37.000Z,101495
2019-03-22T13:02:37.000Z,101498
2019-03-22T13:04:37.000Z,101491
2019-03-22T13:06:37.000Z,101486
2019-03-22T13:07:37.000Z,101492
2019-03-22T13:09:22.000Z,101486
2019-03-22T13:10:37.000Z,101475
2019-03-22T13:12:37.000Z,101472
2019-03-22T13:14:37.000Z,101468
2019-03-22T13:15:37.000Z,101474
2019-03-22T13:17:22.000Z,101484
2019-03-22T13:18:37.000Z,101475
2019-03-22T13:19:37.000Z,101467
2019-03-22T13:21:37.000Z,101468
2019-03-22T13:22:37.000Z,101463
2019-03-22T13:24:37.000Z,101466
2019-03-22T13:26:37.000Z,101456
2019-03-22T13:28:37.000Z,101460
2019-03-22T13:29:37.000Z,101453
2019-03-22T13:31:37.000Z,101454
2019-03-22T13:33:37.000Z,101451
2019-03-22T13:35:37.000Z,101444
2019-03-22T13:36:37.000Z,101455
2019-03-22T13:38:37.000Z,101452
2019-03-22T13:40:37.000Z,101446
2019-03-22T13:42:37.000Z,101449
2019-03-22T13:43:37.000Z,101450
2019-03-22T13:45:37.000Z,101447
2019-03-22T13:46:37.000Z,101444
2019-03-22T13:48:37.000Z,101434
2019-03-22T13:50:22.000Z,101428
2019-03-22T13:51:22.000Z,101427
2019-03-22T13:52:37.000Z,101426
2019-03-22T13:53:37.000Z,101422
2019-03-22T13:55:22.000Z,101419
2019-03-22T13:56:37.000Z,101414
2019-03-22T13:58:22.000Z,101420
2019-03-22T13:59:37.000Z,101415
2019-03-22T14:01:37.000Z,101408
2019-03-22T14:03:37.000Z,101417
2019-03-22T14:05:22.000Z,101415
2019-03-22T14:06:37.000Z,101420
2019-03-22T14:07:37.000Z,101413
2019-03-22T14:09:37.000Z,101421
2019-03-22T14:10:37.000Z,101405
2019-03-22T14:12:37.000Z,101414
2019-03-22T14:14:22.000Z,101406
2019-03-22T14:15:22.000Z,101405
2019-03-22T14:16:37.000Z,101404
2019-03-22T14:18:37.000Z,101407
2019-03-22T14:20:07.000Z,101404
2019-03-22T14:21:37.000Z,101403
2019-03-22T14:22:37.000Z,101408
2019-03-22T14:24:37.000Z,101401
2019-03-22T14:25:37.000Z,101392
2019-03-22T14:26:37.000Z,101394
2019-03-22T14:28:37.000Z,101399
2019-03-22T14:30:37.000Z,101391
2019-03-22T14:32:07.000Z,101390
2019-03-22T14:33:07.000Z,101391
2019-03-22T14:34:37.000Z,101394
2019-03-22T14:35:37.000Z,101390
2019-03-22T14:37:37.000Z,101392
2019-03-22T14:39:37.000Z,101392
2019-03-22T14:41:37.000Z,101386
2019-03-22T14:43:37.000Z,101378
2019-03-22T14:45:37.000Z,101379
2019-03-22T14:47:37.000Z,101375
2019-03-22T14:49:37.000Z,101369
2019-03-22T14:51:37.000Z,101370
2019-03-22T14:52:37.000Z,101371
2019-03-22T14:54:37.000Z,101367
2019-03-22T14:55:37.000Z,101364
2019-03-22T14:57:37.000Z,101359
2019-03-22T14:59:22.000Z,101362
2019-03-22T15:00:37.000Z,101358
2019-03-22T15:02:37.000Z,101365
2019-03-22T15:04:37.000Z,101362
2019-03-22T15:06:37.000Z,101358
2019-03-22T15:08:24.000Z,101360
2019-03-22T15:09:37.000Z,101354
2019-03-22T15:11:37.000Z,101350
2019-03-22T15:13:37.000Z,101349
2019-03-22T15:15:37.000Z,101349
2019-03-22T15:16:37.000Z,101343
2019-03-22T15:18:37.000Z,101347
2019-03-22T15:19:37.000Z,101342
2019-03-22T15:21:37.000Z,101339
2019-03-22T15:23:37.000Z,101337
2019-03-22T15:25:37.000Z,101339
2019-03-22T15:27:37.000Z,101333
2019-03-22T15:28:37.000Z,101338
2019-03-22T15:30:37.000Z,101335
2019-03-22T15:31:37.000Z,101333
2019-03-22T15:32:37.000Z,101336
2019-03-22T15:34:37.000Z,101328
2019-03-22T15:36:07.000Z,101333
2019-03-22T15:37:22.000Z,101330
2019-03-22T15:39:07.000Z,101325
2019-03-22T15:40:22.000Z,101318
2019-03-22T15:41:37.000Z,101319
2019-03-22T15:43:21.000Z,101320
2019-03-22T15:45:07.000Z,101315
2019-03-22T15:46:37.000Z,101320
2019-03-22T15:47:37.000Z,101313
2019-03-22T15:49:21.000Z,101317
2019-03-22T15:50:37.000Z,101314
2019-03-22T15:52:37.000Z,101313
2019-03-22T15:54:37.000Z,101313
2019-03-22T15:56:37.000Z,101310
2019-03-22T15:57:37.000Z,101312
2019-03-22T15:59:37.000Z,101311
2019-03-22T16:00:37.000Z,101310
2019-03-22T16:01:37.000Z,101309
2019-03-22T16:03:21.000Z,101318
2019-03-22T16:04:37.000Z,101312
2019-03-22T16:05:37.000Z,101317
2019-03-22T16:07:37.000Z,101308
2019-03-22T16:08:37.000Z,101312
2019-03-22T16:10:37.000Z,101310
2019-03-22T16:12:37.000Z,101307
2019-03-22T16:13:37.000Z,101305
2019-03-22T16:14:37.000Z,101309
2019-03-22T16:15:37.000Z,101311
2019-03-22T16:17:37.000Z,101305
2019-03-22T16:19:37.000Z,101304
2019-03-22T16:21:37.000Z,101308
2019-03-22T16:23:37.000Z,101300
2019-03-22T16:25:37.000Z,101299
2019-03-22T16:26:37.000Z,101302
2019-03-22T16:28:22.000Z,101301
2019-03-22T16:29:22.000Z,101304
2019-03-22T16:30:37.000Z,101300
2019-03-22T16:32:22.000Z,101299
2019-03-22T16:33:37.000Z,101299
2019-03-22T16:35:37.000Z,101300
2019-03-22T16:37:22.000Z,101303
2019-03-22T16:38:37.000Z,101305
2019-03-22T16:40:22.000Z,101297
2019-03-22T16:42:37.000Z,101296
2019-03-22T16:44:37.000Z,101300
2019-03-22T16:45:37.000Z,101302
2019-03-22T16:47:37.000Z,101298
2019-03-22T16:49:37.000Z,101295
2019-03-22T16:51:37.000Z,101296
2019-03-22T16:53:37.000Z,101293
2019-03-22T16:55:22.000Z,101294
2019-03-22T16:56:37.000Z,101298
2019-03-22T16:57:37.000Z,101293
2019-03-22T16:59:37.000Z,101291
2019-03-22T17:01:37.000Z,101293
2019-03-22T17:02:37.000Z,101293
2019-03-22T17:04:37.000Z,101297
2019-03-22T17:06:37.000Z,101289
2019-03-22T17:07:37.000Z,101291
2019-03-22T17:08:37.000Z,101296
2019-03-22T17:10:22.000Z,101292
2019-03-22T17:12:37.000Z,101298
2019-03-22T17:13:37.000Z,101297
2019-03-22T17:15:07.000Z,101297
2019-03-22T17:16:37.000Z,101295
2019-03-22T17:17:37.000Z,101299
2019-03-22T17:19:22.000Z,101297
2019-03-22T17:20:37.000Z,101301
2019-03-22T17:21:37.000Z,101297
2019-03-22T17:23:37.000Z,101302
2019-03-22T17:25:37.000Z,101304
2019-03-22T17:26:37.000Z,101304
2019-03-22T17:28:37.000Z,101300
2019-03-22T18:07:25.000Z,101314
2019-03-22T18:09:24.000Z,101306
2019-03-22T18:11:09.000Z,101313
2019-03-22T18:12:24.000Z,101315
2019-03-22T18:14:24.000Z,101318
2019-03-22T18:16:24.000Z,101322
2019-03-22T18:17:24.000Z,101321
2019-03-22T18:19:24.000Z,101318
2019-03-22T18:21:24.000Z,101322
2019-03-22T18:23:24.000Z,101325
2019-03-22T18:25:24.000Z,101326
2019-03-22T18:27:24.000Z,101328
2019-03-22T18:29:25.000Z,101333
2019-03-22T18:31:25.000Z,101331
2019-03-22T18:32:25.000Z,101332
2019-03-22T18:33:25.000Z,101334
2019-03-22T18:35:25.000Z,101335
2019-03-22T18:37:09.000Z,101333
2019-03-22T18:38:25.000Z,101329
2019-03-22T18:40:09.000Z,101337
2019-03-22T18:41:25.000Z,101336
2019-03-22T18:43:25.000Z,101335
2019-03-22T18:44:25.000Z,101341
2019-03-22T18:46:25.000Z,101337
2019-03-22T18:48:09.000Z,101341
2019-03-22T18:49:25.000Z,101339
2019-03-22T18:50:55.000Z,101338
2019-03-22T18:52:25.000Z,101342
2019-03-22T18:53:25.000Z,101347
2019-03-22T18:54:25.000Z,101342
2019-03-22T18:55:25.000Z,101346
2019-03-22T18:57:25.000Z,101348
2019-03-22T18:58:25.000Z,101347
2019-03-22T19:00:09.000Z,101349
2019-03-22T19:01:25.000Z,101347
2019-03-22T19:03:25.000Z,101348
2019-03-22T19:05:25.000Z,101347
2019-03-22T19:07:25.000Z,101351
2019-03-22T19:09:09.000Z,101343
2019-03-22T19:10:25.000Z,101352
2019-03-22T19:11:25.000Z,101351
2019-03-22T19:13:25.000Z,101347
2019-03-22T19:15:25.000Z,101352
2019-03-22T19:17:25.000Z,101353
2019-03-22T19:19:25.000Z,101346
2019-03-22T19:20:25.000Z,101345
2019-03-22T19:22:25.000Z,101348
2019-03-22T19:23:25.000Z,101345
2019-03-22T19:25:25.000Z,101344
2019-03-22T19:27:25.000Z,101347
2019-03-22T19:28:25.000Z,101342
2019-03-22T19:30:25.000Z,101342
2019-03-22T19:32:10.000Z,101337
2019-03-22T19:34:25.000Z,101338
2019-03-22T19:36:25.000Z,101339
2019-03-22T19:37:25.000Z,101337
2019-03-22T19:39:25.000Z,101329
2019-03-22T19:41:25.000Z,101335
2019-03-22T19:42:54.000Z,101336
2019-03-22T19:44:25.000Z,101335
2019-03-22T19:45:25.000Z,101331
2019-03-22T19:47:25.000Z,101331
2019-03-22T19:49:25.000Z,101339
2019-03-22T19:51:10.000Z,101339
2019-03-22T19:52:25.000Z,101336
2019-03-22T19:54:25.000Z,101336
2019-03-22T19:55:25.000Z,101341
2019-03-22T19:57:25.000Z,101335
2019-03-22T19:58:25.000Z,101337
2019-03-22T20:00:25.000Z,101340
2019-03-22T20:02:25.000Z,101334
2019-03-22T20:04:25.000Z,101337
2019-03-22T20:06:25.000Z,101336
2019-03-22T20:08:10.000Z,101337
2019-03-22T20:10:25.000Z,101339
2019-03-22T20:11:25.000Z,101339
2019-03-22T20:13:25.000Z,101342
2019-03-22T20:15:10.000Z,101340
2019-03-22T20:16:25.000Z,101343
2019-03-22T20:18:25.000Z,101344
2019-03-22T20:19:25.000Z,101339
2019-03-22T20:21:25.000Z,101342
2019-03-22T20:23:25.000Z,101336
2019-03-22T20:25:25.000Z,101334
2019-03-22T20:27:25.000Z,101338
2019-03-22T20:29:25.000Z,101339
2019-03-22T20:31:25.000Z,101333
2019-03-22T20:33:25.000Z,101333
2019-03-22T20:35:10.000Z,101333
2019-03-22T20:37:25.000Z,101330
2019-03-22T20:38:25.000Z,101334
2019-03-22T20:39:25.000Z,101327
2019-03-22T20:40:25.000Z,101336
2019-03-22T20:42:25.000Z,101328
2019-03-22T20:44:25.000Z,101331
2019-03-22T20:46:25.000Z,101329
2019-03-22T20:48:25.000Z,101328
2019-03-22T20:50:25.000Z,101330
2019-03-22T20:52:25.000Z,101329
2019-03-22T20:53:25.000Z,101323
2019-03-22T20:55:25.000Z,101324
2019-03-22T20:57:25.000Z,101322
2019-03-22T20:59:25.000Z,101324
2019-03-22T21:01:25.000Z,101322
2019-03-22T21:03:25.000Z,101318
2019-03-22T21:05:25.000Z,101310
2019-03-22T21:07:25.000Z,101311
2019-03-22T21:09:25.000Z,101317
2019-03-22T21:11:25.000Z,101315
2019-03-22T21:13:09.000Z,101313
2019-03-22T21:14:25.000Z,101313
2019-03-22T21:15:25.000Z,101312
2019-03-22T21:17:25.000Z,101309